createdAt,value
2018-06-24T00:01:36.035Z,12.90
2018-06-24T00:04:03.413Z,13.00
2018-06-24T00:06:30.883Z,13.00
2018-06-24T00:08:58.275Z,13.00
2018-06-24T00:11:25.645Z,12.90
2018-06-24T00:13:53.084Z,13.00
2018-06-24T00:16:20.435Z,13.00
2018-06-24T00:18:47.859Z,13.00
2018-06-24T00:21:15.253Z,12.90
2018-06-24T00:23:42.694Z,13.00
2018-06-24T00:26:09.987Z,12.90
2018-06-24T00:28:37.439Z,12.90
2018-06-24T00:31:04.901Z,12.90
2018-06-24T00:33:32.355Z,12.80
2018-06-24T00:35:59.815Z,12.90
2018-06-24T00:38:27.221Z,12.80
2018-06-24T00:40:54.609Z,12.80
2018-06-24T00:43:21.999Z,12.80
2018-06-24T00:45:51.052Z,12.70
2018-06-24T00:48:18.392Z,12.80
2018-06-24T00:50:45.821Z,12.90
2018-06-24T00:53:13.258Z,12.90
2018-06-24T00:55:40.729Z,13.00
2018-06-24T00:58:08.195Z,12.90
2018-06-24T01:00:35.649Z,13.00
2018-06-24T01:03:03.009Z,12.90
2018-06-24T01:05:30.351Z,12.80
2018-06-24T01:07:57.765Z,12.80
2018-06-24T01:10:25.205Z,12.80
2018-06-24T01:12:52.660Z,12.80
2018-06-24T01:15:20.034Z,12.70
2018-06-24T01:17:47.334Z,12.70
2018-06-24T01:20:14.748Z,12.60
2018-06-24T01:22:42.081Z,12.60
2018-06-24T01:25:09.463Z,12.60
2018-06-24T01:27:36.886Z,12.50
2018-06-24T01:30:04.714Z,12.40
2018-06-24T01:32:32.206Z,12.40
2018-06-24T01:34:59.658Z,12.30
2018-06-24T01:37:27.042Z,12.30
2018-06-24T01:39:54.438Z,12.20
2018-06-24T01:42:21.906Z,12.20
2018-06-24T01:44:49.253Z,12.30
2018-06-24T01:47:16.650Z,12.20
2018-06-24T01:49:43.998Z,12.20
2018-06-24T01:52:11.334Z,12.20
2018-06-24T01:54:38.738Z,12.30
2018-06-24T01:57:06.128Z,12.30
2018-06-24T01:59:33.466Z,12.30
2018-06-24T02:04:28.202Z,12.20
2018-06-24T02:06:55.588Z,12.20
2018-06-24T02:14:24.410Z,12.30
2018-06-24T02:16:51.718Z,12.40
2018-06-24T02:19:19.060Z,12.30
2018-06-24T02:21:46.466Z,12.40
2018-06-24T02:24:13.910Z,12.40
2018-06-24T02:26:41.226Z,12.40
2018-06-24T02:29:08.626Z,12.40
2018-06-24T02:31:36.240Z,12.50
2018-06-24T02:34:03.650Z,12.60
2018-06-24T02:36:31.082Z,12.60
2018-06-24T02:38:58.470Z,12.60
2018-06-24T02:41:25.884Z,12.60
2018-06-24T02:43:53.222Z,12.70
2018-06-24T02:46:20.624Z,12.30
2018-06-24T02:48:48.024Z,12.30
2018-06-24T02:53:42.797Z,12.40
2018-06-24T02:56:10.214Z,12.50
2018-06-24T02:58:37.526Z,12.50
2018-06-24T03:01:05.252Z,12.50
2018-06-24T03:03:32.330Z,12.40
2018-06-24T03:05:59.754Z,12.50
2018-06-24T03:08:27.597Z,12.40
2018-06-24T03:10:55.050Z,12.40
2018-06-24T03:13:22.445Z,12.50
2018-06-24T03:15:49.749Z,12.50
2018-06-24T03:18:17.209Z,12.60
2018-06-24T03:20:44.603Z,12.60
2018-06-24T03:23:12.124Z,12.60
2018-06-24T03:25:39.505Z,12.60
2018-06-24T03:28:06.990Z,12.60
2018-06-24T03:30:34.321Z,12.60
2018-06-24T03:33:01.997Z,12.60
2018-06-24T03:35:29.381Z,12.60
2018-06-24T03:37:56.853Z,12.60
2018-06-24T03:40:24.195Z,12.60
2018-06-24T03:42:51.476Z,12.60
2018-06-24T03:45:18.944Z,12.60
2018-06-24T03:47:46.338Z,12.60
2018-06-24T03:50:13.707Z,12.70
2018-06-24T03:52:41.205Z,12.70
2018-06-24T03:55:08.585Z,12.70
2018-06-24T03:57:36.033Z,12.80
2018-06-24T04:00:03.987Z,12.80
2018-06-24T04:02:31.349Z,12.80
2018-06-24T04:04:58.796Z,12.80
2018-06-24T04:07:26.212Z,12.70
2018-06-24T04:09:53.616Z,12.70
2018-06-24T04:12:20.951Z,12.70
2018-06-24T04:14:48.513Z,12.60
2018-06-24T04:17:16.069Z,12.70
2018-06-24T04:19:43.388Z,12.60
2018-06-24T04:22:10.832Z,12.60
2018-06-24T04:24:38.226Z,12.60
2018-06-24T04:27:05.627Z,12.60
2018-06-24T04:29:33.120Z,12.80
2018-06-24T04:32:00.512Z,12.80
2018-06-24T04:34:27.840Z,12.80
2018-06-24T04:36:55.246Z,12.80
2018-06-24T04:39:22.690Z,12.90
2018-06-24T04:41:50.055Z,12.90
2018-06-24T04:44:17.402Z,12.80
2018-06-24T04:46:44.777Z,12.60
2018-06-24T04:49:12.180Z,12.70
2018-06-24T04:51:39.481Z,12.80
2018-06-24T04:54:06.891Z,12.80
2018-06-24T04:56:34.248Z,12.80
2018-06-24T04:59:01.707Z,12.90
2018-06-24T05:01:29.101Z,13.00
2018-06-24T05:03:56.486Z,13.00
2018-06-24T05:06:24.038Z,13.00
2018-06-24T05:08:51.398Z,13.10
2018-06-24T05:11:18.802Z,13.10
2018-06-24T05:16:13.730Z,13.20
2018-06-24T05:18:44.906Z,13.20
2018-06-24T05:21:12.328Z,13.20
2018-06-24T05:23:39.674Z,13.10
2018-06-24T05:26:07.074Z,13.00
2018-06-24T05:28:35.682Z,13.10
2018-06-24T05:31:03.226Z,13.00
2018-06-24T05:33:30.685Z,12.90
2018-06-24T05:35:58.164Z,13.00
2018-06-24T05:38:25.565Z,13.10
2018-06-24T05:40:52.982Z,13.10
2018-06-24T05:43:20.438Z,13.10
2018-06-24T05:45:47.818Z,13.20
2018-06-24T05:50:42.664Z,13.40
2018-06-24T05:53:10.150Z,13.50
2018-06-24T05:55:37.532Z,13.50
2018-06-24T05:58:05.241Z,13.40
2018-06-24T06:00:32.629Z,13.60
2018-06-24T06:03:00.401Z,13.60
2018-06-24T06:05:27.710Z,13.60
2018-06-24T06:07:55.182Z,13.60
2018-06-24T06:10:22.647Z,13.80
2018-06-24T06:12:50.204Z,14.00
2018-06-24T06:15:17.617Z,14.20
2018-06-24T06:17:45.052Z,14.10
2018-06-24T06:20:12.418Z,14.00
2018-06-24T06:25:07.573Z,13.90
2018-06-24T06:27:35.058Z,14.00
2018-06-24T06:30:02.634Z,14.10
2018-06-24T06:32:30.085Z,14.30
2018-06-24T06:34:57.575Z,14.50
2018-06-24T06:37:25.059Z,14.50
2018-06-24T06:39:52.413Z,14.60
2018-06-24T06:42:19.851Z,14.80
2018-06-24T06:44:47.267Z,14.80
2018-06-24T06:47:14.597Z,14.70
2018-06-24T06:49:42.047Z,14.80
2018-06-24T06:52:09.437Z,14.60
2018-06-24T06:54:37.216Z,14.60
2018-06-24T06:57:05.331Z,14.80
2018-06-24T06:59:32.764Z,14.90
2018-06-24T07:04:27.472Z,14.80
2018-06-24T07:06:54.844Z,14.70
2018-06-24T07:09:22.393Z,14.80
2018-06-24T07:11:49.811Z,14.90
2018-06-24T07:14:17.246Z,15.00
2018-06-24T07:16:44.725Z,14.90
2018-06-24T07:19:12.853Z,15.30
2018-06-24T07:21:40.256Z,15.50
2018-06-24T07:24:07.738Z,15.60
2018-06-24T07:26:35.183Z,15.70
2018-06-24T07:31:29.992Z,16.00
2018-06-24T07:33:57.398Z,16.00
2018-06-24T07:36:24.793Z,16.00
2018-06-24T07:38:52.203Z,15.60
2018-06-24T07:41:19.600Z,15.60
2018-06-24T07:43:46.958Z,15.90
2018-06-24T07:46:14.355Z,16.20
2018-06-24T07:48:41.809Z,16.30
2018-06-24T07:51:09.291Z,16.30
2018-06-24T07:53:36.751Z,16.30
2018-06-24T07:56:04.334Z,16.20
2018-06-24T07:58:31.738Z,16.30
2018-06-24T08:00:59.143Z,16.50
2018-06-24T08:03:26.554Z,16.70
2018-06-24T08:05:54.127Z,16.70
2018-06-24T08:08:21.543Z,16.70
2018-06-24T08:10:48.895Z,16.90
2018-06-24T08:15:43.578Z,17.20
2018-06-24T08:18:10.934Z,17.60
2018-06-24T08:20:38.279Z,17.60
2018-06-24T08:23:05.834Z,17.70
2018-06-24T08:25:33.273Z,17.80
2018-06-24T08:28:00.648Z,17.90
2018-06-24T08:30:28.058Z,17.90
2018-06-24T08:32:55.456Z,18.00
2018-06-24T08:35:22.864Z,17.90
2018-06-24T08:37:50.380Z,17.80
2018-06-24T08:40:17.785Z,17.90
2018-06-24T08:42:45.182Z,17.90
2018-06-24T08:45:12.622Z,17.90
2018-06-24T08:47:40.000Z,18.30
2018-06-24T08:50:07.470Z,18.60
2018-06-24T08:52:34.932Z,18.40
2018-06-24T08:55:02.335Z,17.90
2018-06-24T08:57:29.666Z,18.00
2018-06-24T08:59:57.066Z,17.90
2018-06-24T09:02:24.454Z,17.80
2018-06-24T09:04:51.914Z,17.70
2018-06-24T09:07:19.338Z,17.70
2018-06-24T09:09:46.757Z,17.60
2018-06-24T09:12:14.112Z,17.90
2018-06-24T09:14:41.535Z,18.20
2018-06-24T09:17:09.008Z,18.20
2018-06-24T09:19:36.394Z,17.90
2018-06-24T09:24:31.245Z,17.50
2018-06-24T09:26:59.534Z,17.40
2018-06-24T09:29:27.006Z,17.30
2018-06-24T09:31:54.358Z,17.30
2018-06-24T09:34:21.710Z,17.30
2018-06-24T09:36:49.113Z,17.30
2018-06-24T09:39:16.581Z,17.20
2018-06-24T09:41:44.028Z,17.30
2018-06-24T09:44:11.422Z,17.30
2018-06-24T09:46:38.934Z,17.30
2018-06-24T09:49:06.698Z,17.40
2018-06-24T09:51:34.944Z,17.40
2018-06-24T09:54:02.340Z,17.50
2018-06-24T09:56:29.684Z,17.50
2018-06-24T09:58:57.190Z,17.70
2018-06-24T10:01:27.717Z,17.90
2018-06-24T10:03:55.532Z,18.00
2018-06-24T10:06:23.335Z,18.10
2018-06-24T10:08:51.176Z,17.90
2018-06-24T10:11:18.555Z,17.80
2018-06-24T10:13:45.997Z,17.80
2018-06-24T10:16:13.291Z,17.80
2018-06-24T10:18:40.781Z,17.80
2018-06-24T10:21:08.247Z,18.00
2018-06-24T10:23:35.795Z,18.30
2018-06-24T10:26:03.450Z,18.60
2018-06-24T10:30:58.403Z,18.80
2018-06-24T10:33:25.754Z,19.10
2018-06-24T10:35:53.126Z,19.40
2018-06-24T10:38:20.524Z,19.50
2018-06-24T10:40:47.967Z,19.90
2018-06-24T10:43:15.294Z,19.90
2018-06-24T10:45:42.749Z,19.80
2018-06-24T10:48:10.131Z,19.30
2018-06-24T10:50:38.204Z,19.40
2018-06-24T10:53:06.233Z,19.50
2018-06-24T10:55:33.685Z,19.40
2018-06-24T10:58:01.188Z,19.10
2018-06-24T11:00:29.432Z,19.20
2018-06-24T11:02:56.790Z,19.20
2018-06-24T11:05:24.189Z,18.90
2018-06-24T11:10:19.198Z,18.90
2018-06-24T11:12:46.646Z,19.10
2018-06-24T11:15:14.055Z,19.20
2018-06-24T11:17:41.508Z,19.30
2018-06-24T11:20:09.070Z,19.60
2018-06-24T11:22:36.550Z,19.90
2018-06-24T11:25:04.477Z,20.00
2018-06-24T11:27:32.226Z,19.80
2018-06-24T11:29:59.653Z,19.80
2018-06-24T11:32:27.061Z,19.50
2018-06-24T11:34:54.779Z,19.30
2018-06-24T11:37:22.191Z,19.20
2018-06-24T11:39:49.590Z,19.10
2018-06-24T11:42:17.201Z,19.00
2018-06-24T11:44:44.586Z,19.20
2018-06-24T11:47:11.956Z,19.30
2018-06-24T11:49:39.470Z,19.60
2018-06-24T11:52:06.836Z,19.70
2018-06-24T11:54:34.352Z,19.80
2018-06-24T11:57:01.821Z,19.90
2018-06-24T11:59:29.277Z,19.80
2018-06-24T12:01:56.767Z,19.80
2018-06-24T12:04:24.222Z,19.70
2018-06-24T12:06:52.455Z,19.60
2018-06-24T12:09:20.011Z,19.40
2018-06-24T12:11:47.350Z,19.20
2018-06-24T12:14:14.720Z,19.10
2018-06-24T12:16:42.159Z,19.00
2018-06-24T12:19:09.615Z,18.90
2018-06-24T12:21:37.083Z,18.80
2018-06-24T12:24:04.743Z,18.80
2018-06-24T12:26:32.165Z,18.90
2018-06-24T12:28:59.550Z,19.30
2018-06-24T12:31:26.948Z,19.60
2018-06-24T12:33:54.390Z,19.60
2018-06-24T12:36:30.369Z,19.80
2018-06-24T12:38:57.746Z,19.40
2018-06-24T12:41:25.602Z,19.70
2018-06-24T12:43:53.907Z,19.90
2018-06-24T12:46:21.319Z,20.00
2018-06-24T12:48:48.782Z,19.60
2018-06-24T12:51:17.190Z,19.70
2018-06-24T12:53:44.934Z,19.80
2018-06-24T12:56:12.354Z,19.90
2018-06-24T12:58:39.916Z,20.20
2018-06-24T13:01:07.547Z,20.60
2018-06-24T13:03:34.916Z,21.00
2018-06-24T13:06:02.374Z,21.30
2018-06-24T13:08:29.819Z,21.50
2018-06-24T13:10:57.227Z,21.20
2018-06-24T13:13:24.699Z,21.20
2018-06-24T13:15:52.145Z,21.50
2018-06-24T13:18:19.557Z,21.60
2018-06-24T13:20:46.971Z,20.80
2018-06-24T13:23:14.328Z,20.50
2018-06-24T13:25:41.711Z,20.40
2018-06-24T13:28:09.148Z,20.60
2018-06-24T13:30:36.551Z,20.60
2018-06-24T13:33:03.914Z,20.90
2018-06-24T13:35:31.404Z,20.60
2018-06-24T13:37:58.881Z,20.50
2018-06-24T13:40:26.289Z,20.80
2018-06-24T13:42:53.713Z,20.90
2018-06-24T13:45:21.167Z,20.50
2018-06-24T13:47:48.571Z,20.40
2018-06-24T13:50:15.971Z,19.90
2018-06-24T13:52:43.343Z,19.80
2018-06-24T13:55:10.699Z,19.80
2018-06-24T13:57:38.069Z,19.90
2018-06-24T14:00:05.733Z,19.90
2018-06-24T14:02:33.291Z,20.00
2018-06-24T14:05:00.669Z,20.00
2018-06-24T14:07:28.152Z,20.10
2018-06-24T14:09:55.656Z,20.00
2018-06-24T14:12:23.116Z,20.10
2018-06-24T14:14:50.622Z,20.20
2018-06-24T14:17:18.113Z,20.40
2018-06-24T14:19:45.716Z,20.50
2018-06-24T14:22:13.190Z,20.60
2018-06-24T14:24:40.541Z,20.50
2018-06-24T14:27:08.011Z,20.60
2018-06-24T14:29:35.521Z,20.80
2018-06-24T14:32:03.080Z,20.60
2018-06-24T14:34:30.555Z,20.80
2018-06-24T14:36:57.927Z,20.80
2018-06-24T14:39:25.440Z,20.80
2018-06-24T14:41:52.921Z,21.00
2018-06-24T14:44:20.293Z,20.80
2018-06-24T14:46:47.715Z,20.80
2018-06-24T14:49:15.152Z,20.90
2018-06-24T14:51:42.534Z,20.90
2018-06-24T14:54:10.074Z,20.70
2018-06-24T14:56:37.436Z,20.70
2018-06-24T14:59:04.936Z,20.70
2018-06-24T15:01:32.457Z,20.80
2018-06-24T15:03:59.752Z,20.90
2018-06-24T15:06:27.149Z,20.70
2018-06-24T15:08:54.545Z,20.60
2018-06-24T15:11:21.984Z,20.80
2018-06-24T15:13:49.383Z,20.80
2018-06-24T15:16:16.873Z,20.90
2018-06-24T15:18:44.269Z,21.00
2018-06-24T15:21:11.719Z,20.90
2018-06-24T15:23:39.231Z,20.80
2018-06-24T15:26:06.604Z,20.70
2018-06-24T15:28:34.011Z,20.50
2018-06-24T15:31:01.354Z,20.50
2018-06-24T15:33:28.773Z,20.60
2018-06-24T15:35:56.167Z,20.50
2018-06-24T15:38:23.569Z,20.60
2018-06-24T15:40:51.031Z,20.40
2018-06-24T15:43:19.640Z,20.40
2018-06-24T15:45:47.076Z,20.30
2018-06-24T15:48:14.415Z,20.10
2018-06-24T15:50:41.929Z,20.20
2018-06-24T15:53:09.259Z,20.40
2018-06-24T15:55:36.603Z,20.30
2018-06-24T15:58:04.081Z,20.20
2018-06-24T16:00:31.468Z,20.20
2018-06-24T16:02:58.868Z,20.20
2018-06-24T16:05:26.383Z,20.30
2018-06-24T16:07:53.885Z,20.20
2018-06-24T16:10:21.440Z,20.10
2018-06-24T16:12:48.957Z,20.10
2018-06-24T16:15:16.495Z,20.20
2018-06-24T16:20:11.533Z,20.20
2018-06-24T16:22:38.939Z,20.20
2018-06-24T16:25:07.137Z,20.10
2018-06-24T16:27:34.572Z,20.00
2018-06-24T16:30:02.074Z,20.00
2018-06-24T16:32:29.599Z,19.90
2018-06-24T16:34:57.053Z,19.90
2018-06-24T16:37:24.599Z,19.80
2018-06-24T16:39:51.934Z,19.80
2018-06-24T16:42:19.367Z,19.80
2018-06-24T16:44:46.893Z,19.80
2018-06-24T16:47:14.357Z,19.80
2018-06-24T16:49:41.843Z,19.80
2018-06-24T16:52:09.256Z,19.70
2018-06-24T16:54:36.820Z,19.60
2018-06-24T16:57:04.396Z,19.40
2018-06-24T16:59:31.829Z,19.20
2018-06-24T17:01:59.245Z,19.20
2018-06-24T17:04:26.673Z,19.10
2018-06-24T17:06:54.156Z,19.20
2018-06-24T17:09:21.532Z,19.20
2018-06-24T17:11:48.974Z,19.10
2018-06-24T17:14:16.443Z,19.10
2018-06-24T17:16:43.936Z,19.00
2018-06-24T17:19:11.437Z,18.90
2018-06-24T17:21:38.898Z,18.90
2018-06-24T17:24:06.382Z,18.90
2018-06-24T17:26:33.725Z,18.90
2018-06-24T17:29:01.229Z,18.90
2018-06-24T17:31:28.696Z,18.90
2018-06-24T17:33:56.106Z,18.90
2018-06-24T17:36:23.582Z,18.80
2018-06-24T17:38:51.011Z,18.80
2018-06-24T17:41:18.404Z,18.80
2018-06-24T17:43:45.793Z,18.80
2018-06-24T17:46:13.737Z,18.80
2018-06-24T17:48:41.224Z,18.80
2018-06-24T17:51:08.594Z,18.70
2018-06-24T17:53:36.126Z,18.70
2018-06-24T17:56:03.462Z,18.70
2018-06-24T17:58:30.821Z,18.70
2018-06-24T18:00:58.962Z,18.60
2018-06-24T18:03:26.520Z,18.60
2018-06-24T18:05:53.965Z,18.50
2018-06-24T18:08:21.432Z,18.50
2018-06-24T18:10:48.782Z,18.60
2018-06-24T18:13:16.286Z,18.50
2018-06-24T18:15:43.669Z,18.40
2018-06-24T18:18:11.090Z,18.40
2018-06-24T18:20:38.536Z,18.30
2018-06-24T18:23:06.010Z,18.40
2018-06-24T18:25:33.447Z,18.30
2018-06-24T18:28:00.978Z,18.20
2018-06-24T18:30:28.432Z,18.20
2018-06-24T18:32:55.934Z,18.20
2018-06-24T18:37:50.770Z,18.10
2018-06-24T18:40:18.244Z,18.00
2018-06-24T18:42:45.622Z,18.00
2018-06-24T18:45:13.047Z,17.90
2018-06-24T18:50:08.592Z,17.90
2018-06-24T18:52:36.962Z,17.80
2018-06-24T18:55:04.759Z,17.80
2018-06-24T18:57:32.228Z,17.70
2018-06-24T18:59:59.693Z,17.70
2018-06-24T19:02:27.214Z,17.60
2018-06-24T19:04:54.729Z,17.70
2018-06-24T19:09:50.201Z,17.60
2018-06-24T19:12:17.671Z,17.60
2018-06-24T19:14:45.218Z,17.60
2018-06-24T19:17:12.709Z,17.60
2018-06-24T19:19:40.387Z,17.50
2018-06-24T19:22:07.914Z,17.50
2018-06-24T19:24:35.603Z,17.50
2018-06-24T19:27:03.322Z,17.50
2018-06-24T19:29:30.793Z,17.50
2018-06-24T19:31:58.166Z,17.60
2018-06-24T19:34:25.892Z,17.60
2018-06-24T19:36:53.564Z,17.60
2018-06-24T19:39:21.002Z,17.60
2018-06-24T19:41:48.459Z,17.60
2018-06-24T19:44:16.051Z,17.50
2018-06-24T19:46:43.702Z,17.50
2018-06-24T19:49:11.442Z,17.50
2018-06-24T19:51:40.577Z,17.40
2018-06-24T19:54:07.989Z,17.30
2018-06-24T19:56:35.444Z,17.30
2018-06-24T19:59:02.985Z,17.40
2018-06-24T20:01:30.572Z,17.30
2018-06-24T20:03:58.090Z,17.30
2018-06-24T20:06:25.598Z,17.20
2018-06-24T20:08:52.992Z,17.20
2018-06-24T20:11:21.129Z,17.20
2018-06-24T20:13:48.570Z,17.20
2018-06-24T20:16:16.570Z,17.10
2018-06-24T20:18:44.731Z,17.00
2018-06-24T20:21:12.425Z,17.00
2018-06-24T20:23:39.960Z,16.90
2018-06-24T20:26:07.611Z,16.80
2018-06-24T20:28:35.058Z,16.80
2018-06-24T20:31:03.289Z,16.70
2018-06-24T20:33:30.760Z,16.70
2018-06-24T20:35:58.155Z,16.70
2018-06-24T20:38:25.582Z,16.70
2018-06-24T20:40:52.966Z,16.70
2018-06-24T20:43:20.377Z,16.70
2018-06-24T20:45:48.906Z,16.60
2018-06-24T20:48:16.349Z,16.60
2018-06-24T20:50:43.888Z,16.60
2018-06-24T20:53:11.307Z,16.60
2018-06-24T20:55:38.663Z,16.60
2018-06-24T20:58:05.992Z,16.50
2018-06-24T21:00:33.434Z,16.50
2018-06-24T21:03:00.850Z,16.50
2018-06-24T21:05:28.190Z,16.50
2018-06-24T21:07:55.638Z,16.50
2018-06-24T21:10:23.094Z,16.40
2018-06-24T21:12:50.502Z,16.40
2018-06-24T21:15:18.065Z,16.40
2018-06-24T21:17:45.448Z,16.40
2018-06-24T21:20:12.894Z,16.40
2018-06-24T21:22:40.450Z,16.40
2018-06-24T21:25:14.591Z,16.40
2018-06-24T21:27:42.058Z,16.30
2018-06-24T21:30:09.402Z,16.30
2018-06-24T21:32:36.823Z,16.30
2018-06-24T21:35:04.299Z,16.30
2018-06-24T21:37:31.671Z,16.30
2018-06-24T21:39:59.012Z,16.30
2018-06-24T21:42:26.316Z,16.30
2018-06-24T21:44:53.809Z,16.30
2018-06-24T21:47:21.367Z,16.30
2018-06-24T21:49:48.755Z,16.30
2018-06-24T21:52:16.201Z,16.30
2018-06-24T21:54:43.611Z,16.20
2018-06-24T21:57:11.045Z,16.30
2018-06-24T21:59:38.419Z,16.20
2018-06-24T22:02:06.525Z,16.20
2018-06-24T22:04:33.947Z,16.20
2018-06-24T22:07:01.703Z,16.20
2018-06-24T22:09:29.112Z,16.20
2018-06-24T22:11:56.639Z,16.20
2018-06-24T22:14:23.975Z,16.10
2018-06-24T22:16:51.441Z,16.10
2018-06-24T22:19:18.871Z,16.00
2018-06-24T22:21:46.292Z,16.10
2018-06-24T22:24:13.693Z,16.10
2018-06-24T22:26:41.095Z,16.00
2018-06-24T22:29:08.505Z,16.00
2018-06-24T22:31:35.909Z,16.00
2018-06-24T22:34:03.283Z,16.00
2018-06-24T22:36:30.670Z,15.90
2018-06-24T22:38:58.095Z,15.80
2018-06-24T22:41:25.507Z,15.80
2018-06-24T22:43:52.921Z,15.80
2018-06-24T22:46:20.283Z,15.90
2018-06-24T22:48:47.611Z,15.90
2018-06-24T22:51:15.038Z,15.80
2018-06-24T22:53:42.418Z,15.80
2018-06-24T22:56:09.751Z,15.80
2018-06-24T22:58:37.145Z,15.90
2018-06-24T23:01:04.657Z,15.80
2018-06-24T23:03:31.999Z,15.70
2018-06-24T23:05:59.395Z,15.80
2018-06-24T23:08:26.790Z,15.80
2018-06-24T23:10:54.272Z,15.80
2018-06-24T23:13:21.710Z,15.70
2018-06-24T23:15:49.119Z,15.80
2018-06-24T23:18:16.518Z,15.80
2018-06-24T23:20:43.901Z,15.70
2018-06-24T23:23:11.270Z,15.70
2018-06-24T23:25:38.625Z,15.60
2018-06-24T23:28:06.091Z,15.60
2018-06-24T23:30:33.554Z,15.60
2018-06-24T23:33:01.023Z,15.60
2018-06-24T23:35:28.406Z,15.70
2018-06-24T23:37:55.710Z,15.60
2018-06-24T23:40:23.146Z,15.60
2018-06-24T23:42:50.433Z,15.70
2018-06-24T23:45:17.954Z,15.70
2018-06-24T23:47:45.417Z,15.70
2018-06-24T23:50:12.838Z,15.60
2018-06-24T23:52:40.241Z,15.60
2018-06-24T23:55:07.563Z,15.50
2018-06-24T23:57:34.958Z,15.50
